createdAt,value
2024-04-14T00:00:15.556Z,20.46
2024-04-14T00:02:42.539Z,20.18
2024-04-14T00:05:09.248Z,20.25
2024-04-14T00:07:38.748Z,20.16
2024-04-14T00:10:06.661Z,19.91
2024-04-14T00:12:33.745Z,19.85
2024-04-14T00:15:00.711Z,19.59
2024-04-14T00:17:27.577Z,19.66
2024-04-14T00:19:55.213Z,19.39
2024-04-14T00:22:23.099Z,19.07
2024-04-14T00:24:49.896Z,19.33
2024-04-14T00:27:17.373Z,19.27
2024-04-14T00:29:44.962Z,19.19
2024-04-14T00:32:12.629Z,19.04
2024-04-14T00:34:39.685Z,18.80
2024-04-14T00:37:09.735Z,19.13
2024-04-14T00:39:37.269Z,19.15
2024-04-14T00:42:04.377Z,19.37
2024-04-14T00:44:31.061Z,19.65
2024-04-14T00:46:58.501Z,19.58
2024-04-14T00:49:26.025Z,19.10
2024-04-14T00:51:55.521Z,19.07
2024-04-14T00:54:23.496Z,19.09
2024-04-14T00:56:54.480Z,19.02
2024-04-14T00:59:21.159Z,19.09
2024-04-14T01:01:49.336Z,19.16
2024-04-14T01:04:19.147Z,19.29
2024-04-14T01:06:46.777Z,19.91
2024-04-14T01:09:16.498Z,19.94
2024-04-14T01:11:43.334Z,19.85
2024-04-14T01:14:09.997Z,20.01
2024-04-14T01:16:36.683Z,20.04
2024-04-14T01:19:03.980Z,20.17
2024-04-14T01:21:31.579Z,20.28
2024-04-14T01:23:58.580Z,20.22
2024-04-14T01:26:28.502Z,20.12
2024-04-14T01:28:55.257Z,20.05
2024-04-14T01:31:21.960Z,19.85
2024-04-14T01:33:49.944Z,19.46
2024-04-14T01:36:18.873Z,19.17
2024-04-14T01:38:47.092Z,19.04
2024-04-14T01:41:14.775Z,18.78
2024-04-14T01:43:43.924Z,18.40
2024-04-14T01:46:13.619Z,18.65
2024-04-14T01:48:41.107Z,18.46
2024-04-14T01:51:08.167Z,18.47
2024-04-14T01:53:37.592Z,18.55
2024-04-14T01:56:07.090Z,18.63
2024-04-14T01:58:34.063Z,18.68
2024-04-14T02:01:03.324Z,18.84
2024-04-14T02:03:30.503Z,19.02
2024-04-14T02:05:58.532Z,19.15
2024-04-14T02:08:25.251Z,19.11
2024-04-14T02:10:54.136Z,18.99
2024-04-14T02:13:22.678Z,19.23
2024-04-14T02:15:49.763Z,19.58
2024-04-14T02:18:16.821Z,19.35
2024-04-14T02:20:43.983Z,19.07
2024-04-14T02:23:14.930Z,18.66
2024-04-14T02:25:41.909Z,19.16
2024-04-14T02:28:08.599Z,19.28
2024-04-14T02:30:35.925Z,19.11
2024-04-14T02:33:03.465Z,19.31
2024-04-14T02:35:30.475Z,19.31
2024-04-14T02:37:57.424Z,18.61
2024-04-14T02:40:24.459Z,18.97
2024-04-14T02:42:51.481Z,19.45
2024-04-14T02:45:19.000Z,18.94
2024-04-14T02:47:46.288Z,18.51
2024-04-14T02:50:18.203Z,18.52
2024-04-14T02:52:44.939Z,18.21
2024-04-14T02:55:11.610Z,18.17
2024-04-14T02:57:38.402Z,18.47
2024-04-14T03:00:06.174Z,18.88
2024-04-14T03:02:33.635Z,18.96
2024-04-14T03:05:00.874Z,19.20
2024-04-14T03:07:27.900Z,19.07
2024-04-14T03:09:55.669Z,19.00
2024-04-14T03:12:22.347Z,18.62
2024-04-14T03:14:49.101Z,18.22
2024-04-14T03:17:18.006Z,18.06
2024-04-14T03:19:44.728Z,18.18
2024-04-14T03:22:11.909Z,18.22
2024-04-14T03:24:38.942Z,18.11
2024-04-14T03:27:05.637Z,18.21
2024-04-14T03:29:32.294Z,18.04
2024-04-14T03:31:59.619Z,17.65
2024-04-14T03:34:26.681Z,17.70
2024-04-14T03:36:53.386Z,18.04
2024-04-14T03:39:20.933Z,18.20
2024-04-14T03:41:49.764Z,18.41
2024-04-14T03:44:17.622Z,18.29
2024-04-14T03:46:44.899Z,18.51
2024-04-14T03:49:11.666Z,18.33
2024-04-14T03:51:41.229Z,18.21
2024-04-14T03:54:09.868Z,18.35
2024-04-14T03:56:36.946Z,18.21
2024-04-14T03:59:04.149Z,18.23
2024-04-14T04:01:32.212Z,18.34
2024-04-14T04:03:59.261Z,18.39
2024-04-14T04:06:33.585Z,18.26
2024-04-14T04:09:00.937Z,18.05
2024-04-14T04:11:27.962Z,17.64
2024-04-14T04:14:15.156Z,17.70
2024-04-14T04:17:02.168Z,18.20
2024-04-14T04:19:49.155Z,18.40
2024-04-14T04:22:17.284Z,18.29
2024-04-14T04:24:43.991Z,18.26
2024-04-14T04:27:11.087Z,18.39
2024-04-14T04:29:37.749Z,18.32
2024-04-14T04:32:04.750Z,18.01
2024-04-14T04:34:31.562Z,17.35
2024-04-14T04:36:59.752Z,17.53
2024-04-14T04:39:30.304Z,17.19
2024-04-14T04:42:00.214Z,17.05
2024-04-14T04:44:26.899Z,17.39
2024-04-14T04:46:56.937Z,17.46
2024-04-14T04:49:25.115Z,17.44
2024-04-14T04:51:53.699Z,17.79
2024-04-14T04:54:24.067Z,17.49
2024-04-14T04:56:51.130Z,16.96
2024-04-14T04:59:17.801Z,16.68
2024-04-14T05:01:48.743Z,17.10
2024-04-14T05:04:16.430Z,17.37
2024-04-14T05:06:44.143Z,17.98
2024-04-14T05:09:11.497Z,18.11
2024-04-14T05:11:41.296Z,17.81
2024-04-14T05:14:15.669Z,17.46
2024-04-14T05:16:44.544Z,17.59
2024-04-14T05:19:18.992Z,18.31
2024-04-14T05:21:45.906Z,17.92
2024-04-14T05:24:12.818Z,18.20
2024-04-14T05:26:40.797Z,19.33
2024-04-14T05:29:07.521Z,20.93
2024-04-14T05:31:36.900Z,22.24
2024-04-14T05:34:05.162Z,22.95
2024-04-14T05:36:32.245Z,23.43
2024-04-14T05:38:59.949Z,24.06
2024-04-14T05:41:26.915Z,24.84
2024-04-14T05:43:54.469Z,25.62
2024-04-14T05:46:22.342Z,25.59
2024-04-14T05:48:49.386Z,25.79
2024-04-14T05:51:16.370Z,25.89
2024-04-14T05:53:43.318Z,26.78
2024-04-14T05:56:10.088Z,27.74
2024-04-14T05:58:37.628Z,28.43
2024-04-14T06:01:06.640Z,28.66
2024-04-14T06:03:36.349Z,29.31
2024-04-14T06:06:03.339Z,28.75
2024-04-14T06:08:30.084Z,28.63
2024-04-14T06:11:00.326Z,28.74
2024-04-14T06:13:52.851Z,28.11
2024-04-14T06:16:19.917Z,27.04
2024-04-14T06:18:46.773Z,26.46
2024-04-14T06:21:13.505Z,25.33
2024-04-14T06:23:41.083Z,25.05
2024-04-14T06:26:11.120Z,24.63
2024-04-14T06:28:37.862Z,24.25
2024-04-14T06:31:04.756Z,24.62
2024-04-14T06:33:31.777Z,25.74
2024-04-14T06:36:01.091Z,26.55
2024-04-14T06:38:28.145Z,26.99
2024-04-14T06:40:54.933Z,27.08
2024-04-14T06:43:24.195Z,27.23
2024-04-14T06:45:50.949Z,27.68
2024-04-14T06:48:17.828Z,27.25
2024-04-14T06:50:44.616Z,27.55
2024-04-14T06:53:11.575Z,26.73
2024-04-14T06:55:38.444Z,27.05
2024-04-14T06:58:05.565Z,25.48
2024-04-14T07:00:32.632Z,24.83
2024-04-14T07:02:59.953Z,25.54
2024-04-14T07:05:26.568Z,25.48
2024-04-14T07:07:56.379Z,25.93
2024-04-14T07:10:23.424Z,25.86
2024-04-14T07:12:50.504Z,26.15
2024-04-14T07:15:23.813Z,26.76
2024-04-14T07:17:53.624Z,26.99
2024-04-14T07:20:24.034Z,26.76
2024-04-14T07:22:50.802Z,27.11
2024-04-14T07:25:18.350Z,26.87
2024-04-14T07:27:48.235Z,26.61
2024-04-14T07:30:15.449Z,26.39
2024-04-14T07:32:42.590Z,26.40
2024-04-14T07:35:10.235Z,25.38
2024-04-14T07:37:39.640Z,25.12
2024-04-14T07:40:06.650Z,25.02
2024-04-14T07:42:33.332Z,24.97
2024-04-14T07:45:02.791Z,24.93
2024-04-14T07:47:30.296Z,23.97
2024-04-14T07:53:13.880Z,24.03
2024-04-14T07:55:40.590Z,23.76
2024-04-14T07:58:11.041Z,23.99
2024-04-14T08:00:41.660Z,23.65
2024-04-14T08:03:08.609Z,23.58
2024-04-14T08:05:37.647Z,23.31
2024-04-14T08:08:08.265Z,22.41
2024-04-14T08:10:34.968Z,22.93
2024-04-14T08:13:01.906Z,23.09
2024-04-14T08:15:28.641Z,22.91
2024-04-14T08:17:55.305Z,22.92
2024-04-14T08:20:22.386Z,21.63
2024-04-14T08:22:49.178Z,21.60
2024-04-14T08:25:15.871Z,22.22
2024-04-14T08:27:42.856Z,22.64
2024-04-14T08:30:11.401Z,22.56
2024-04-14T08:32:38.141Z,22.47
2024-04-14T08:35:05.144Z,21.61
2024-04-14T08:37:32.574Z,21.91
2024-04-14T08:39:59.352Z,21.70
2024-04-14T08:42:26.336Z,22.27
2024-04-14T08:44:53.343Z,22.52
2024-04-14T08:47:20.933Z,21.59
2024-04-14T08:49:47.620Z,21.83
2024-04-14T08:52:15.014Z,22.48
2024-04-14T08:54:44.263Z,22.60
2024-04-14T08:57:18.466Z,22.55
2024-04-14T08:59:52.689Z,22.30
2024-04-14T09:02:20.188Z,23.02
2024-04-14T09:04:46.872Z,22.42
2024-04-14T09:07:13.617Z,22.79
2024-04-14T09:09:40.295Z,23.33
2024-04-14T09:12:06.976Z,23.42
2024-04-14T09:14:33.926Z,23.75
2024-04-14T09:17:01.429Z,23.84
2024-04-14T09:19:29.196Z,23.77
2024-04-14T09:21:56.542Z,23.61
2024-04-14T09:24:23.264Z,23.83
2024-04-14T09:26:51.029Z,23.83
2024-04-14T09:29:20.240Z,23.76
2024-04-14T09:31:47.230Z,23.93
2024-04-14T09:34:15.142Z,24.20
2024-04-14T09:36:44.187Z,24.20
2024-04-14T09:39:10.839Z,24.50
2024-04-14T09:41:37.813Z,24.13
2024-04-14T09:44:07.252Z,24.38
2024-04-14T09:46:36.528Z,24.25
2024-04-14T09:49:03.528Z,24.58
2024-04-14T09:51:30.923Z,24.13
2024-04-14T09:53:58.018Z,24.18
2024-04-14T09:56:25.455Z,24.40
2024-04-14T09:58:52.437Z,24.52
2024-04-14T10:01:19.309Z,24.65
2024-04-14T10:03:46.176Z,24.65
2024-04-14T10:06:13.201Z,24.41
2024-04-14T10:08:39.912Z,24.18
2024-04-14T10:11:07.834Z,24.10
2024-04-14T10:13:35.354Z,24.21
2024-04-14T10:18:42.463Z,24.21
2024-04-14T10:21:11.236Z,24.45
2024-04-14T10:23:38.353Z,24.67
2024-04-14T10:26:05.009Z,24.91
2024-04-14T10:28:32.067Z,24.99
2024-04-14T10:30:58.901Z,24.47
2024-04-14T10:33:33.277Z,25.06
2024-04-14T10:36:00.496Z,24.81
2024-04-14T10:38:27.461Z,25.27
2024-04-14T10:40:54.461Z,25.21
2024-04-14T10:43:21.551Z,25.51
2024-04-14T10:45:48.547Z,25.62
2024-04-14T10:48:15.228Z,25.69
2024-04-14T10:50:44.040Z,25.83
2024-04-14T10:53:14.359Z,25.05
2024-04-14T10:55:41.291Z,24.85
2024-04-14T10:58:15.279Z,25.32
2024-04-14T11:00:42.363Z,25.18
2024-04-14T11:03:09.352Z,24.96
2024-04-14T11:05:36.140Z,24.75
2024-04-14T11:08:02.953Z,25.00
2024-04-14T11:10:29.983Z,25.36
2024-04-14T11:12:56.979Z,24.60
2024-04-14T11:15:23.999Z,24.91
2024-04-14T11:17:53.828Z,25.26
2024-04-14T11:20:20.556Z,24.97
2024-04-14T11:22:47.609Z,25.23
2024-04-14T11:25:14.233Z,25.31
2024-04-14T11:27:41.027Z,25.69
2024-04-14T11:30:07.735Z,25.63
2024-04-14T11:32:37.483Z,25.71
2024-04-14T11:35:04.307Z,25.85
2024-04-14T11:37:38.404Z,25.88
2024-04-14T11:40:06.001Z,26.20
2024-04-14T11:42:33.961Z,26.01
2024-04-14T11:45:00.942Z,26.29
2024-04-14T11:47:27.639Z,26.11
2024-04-14T11:49:54.431Z,25.95
2024-04-14T11:52:21.278Z,26.21
2024-04-14T11:54:47.968Z,26.24
2024-04-14T11:57:14.681Z,26.42
2024-04-14T11:59:41.397Z,26.47
2024-04-14T12:02:08.434Z,26.82
2024-04-14T12:04:35.180Z,26.80
2024-04-14T12:07:01.919Z,27.02
2024-04-14T12:09:28.693Z,26.66
2024-04-14T12:11:56.342Z,26.67
2024-04-14T12:14:23.040Z,26.64
2024-04-14T12:16:52.331Z,26.99
2024-04-14T12:19:19.285Z,27.15
2024-04-14T12:21:47.154Z,26.75
2024-04-14T12:24:13.915Z,26.59
2024-04-14T12:26:40.548Z,26.95
2024-04-14T12:29:07.263Z,27.19
2024-04-14T12:31:34.446Z,27.37
2024-04-14T12:34:05.058Z,27.22
2024-04-14T12:36:31.753Z,26.59
2024-04-14T12:38:58.471Z,27.34
2024-04-14T12:41:25.142Z,27.15
2024-04-14T12:43:53.688Z,27.05
2024-04-14T12:46:23.522Z,27.31
2024-04-14T12:48:50.287Z,26.51
2024-04-14T12:51:16.940Z,26.23
2024-04-14T12:53:43.622Z,25.82
2024-04-14T12:56:10.300Z,25.79
2024-04-14T12:58:37.038Z,26.35
2024-04-14T13:13:50.817Z,26.44
2024-04-14T13:34:43.669Z,27.59
2024-04-14T13:37:10.483Z,27.76
2024-04-14T13:39:37.321Z,27.85
2024-04-14T13:42:05.500Z,28.05
2024-04-14T13:44:35.065Z,27.65
2024-04-14T13:47:02.188Z,27.32
2024-04-14T13:49:32.278Z,27.43
2024-04-14T13:58:30.855Z,28.02
2024-04-14T14:00:57.746Z,27.66
2024-04-14T14:03:24.584Z,27.64
2024-04-14T14:05:51.420Z,27.11
2024-04-14T14:08:18.409Z,27.24
2024-04-14T14:10:45.434Z,27.36
2024-04-14T14:13:12.638Z,27.60
2024-04-14T14:15:39.815Z,28.10
2024-04-14T14:18:07.123Z,27.96
2024-04-14T14:20:36.238Z,27.70
2024-04-14T14:23:06.131Z,27.54
2024-04-14T14:25:32.796Z,27.91
2024-04-14T14:27:59.854Z,27.87
2024-04-14T14:30:26.552Z,28.14
2024-04-14T14:32:54.415Z,28.36
2024-04-14T14:35:22.394Z,28.76
2024-04-14T14:37:49.246Z,28.95
2024-04-14T14:40:16.242Z,29.08
2024-04-14T14:42:45.997Z,28.84
2024-04-14T14:45:13.765Z,28.79
2024-04-14T14:47:41.421Z,28.75
2024-04-14T14:50:08.194Z,28.97
2024-04-14T14:52:35.081Z,28.63
2024-04-14T14:55:03.280Z,28.99
2024-04-14T14:57:30.130Z,28.63
2024-04-14T14:59:59.118Z,29.11
2024-04-14T15:02:27.128Z,29.11
2024-04-14T15:04:54.425Z,29.04
2024-04-14T15:07:21.239Z,29.32
2024-04-14T15:09:49.318Z,29.36
2024-04-14T15:15:01.683Z,29.06
2024-04-14T15:23:51.800Z,29.51
2024-04-14T15:26:18.466Z,29.36
2024-04-14T15:28:46.120Z,29.36
2024-04-14T15:31:23.992Z,29.17
2024-04-14T15:33:50.691Z,29.25
2024-04-14T15:36:19.662Z,29.22
2024-04-14T15:38:46.322Z,29.07
2024-04-14T15:41:13.126Z,29.25
2024-04-14T15:43:39.747Z,28.88
2024-04-14T15:46:06.814Z,29.01
2024-04-14T15:48:33.458Z,29.19
2024-04-14T15:51:13.548Z,28.86
2024-04-14T15:53:46.292Z,28.96
2024-04-14T15:56:13.296Z,29.04
2024-04-14T15:58:41.004Z,29.06
2024-04-14T16:01:07.743Z,29.02
2024-04-14T16:03:34.507Z,28.64
2024-04-14T16:06:01.497Z,28.61
2024-04-14T16:08:28.225Z,28.81
2024-04-14T16:10:54.878Z,29.05
2024-04-14T16:13:21.610Z,29.19
2024-04-14T16:15:48.410Z,28.62
2024-04-14T16:18:18.753Z,28.94
2024-04-14T16:20:45.874Z,29.05
2024-04-14T16:23:12.595Z,28.70
2024-04-14T16:25:39.283Z,28.57
2024-04-14T16:28:06.335Z,28.54
2024-04-14T16:30:33.339Z,28.25
2024-04-14T16:33:00.888Z,27.85
2024-04-14T16:35:27.595Z,27.96
2024-04-14T16:37:54.230Z,28.30
2024-04-14T16:40:20.863Z,27.66
2024-04-14T16:42:50.049Z,27.81
2024-04-14T16:45:16.720Z,27.81
2024-04-14T16:47:43.713Z,27.71
2024-04-14T16:50:10.574Z,27.86
2024-04-14T16:52:37.444Z,28.15
2024-04-14T16:55:04.583Z,27.83
2024-04-14T16:57:34.352Z,28.20
2024-04-14T17:00:00.987Z,27.83
2024-04-14T17:02:27.639Z,27.79
2024-04-14T17:04:54.266Z,27.86
2024-04-14T17:07:21.012Z,27.52
2024-04-14T17:09:47.657Z,27.54
2024-04-14T17:12:15.235Z,27.70
2024-04-14T17:14:44.606Z,27.57
2024-04-14T17:17:12.968Z,27.54
2024-04-14T17:19:39.632Z,27.55
2024-04-14T17:22:06.400Z,27.73
2024-04-14T17:24:33.073Z,27.47
2024-04-14T17:26:59.678Z,27.76
2024-04-14T17:29:26.292Z,27.39
2024-04-14T17:31:52.927Z,26.99
2024-04-14T17:34:19.623Z,27.07
2024-04-14T17:36:46.319Z,27.10
2024-04-14T17:39:13.030Z,27.16
2024-04-14T17:41:39.670Z,26.81
2024-04-14T17:44:06.402Z,26.69
2024-04-14T17:46:33.035Z,26.92
2024-04-14T17:48:59.685Z,26.60
2024-04-14T17:51:26.395Z,26.55
2024-04-14T17:53:53.312Z,26.90
2024-04-14T17:56:27.401Z,26.66
2024-04-14T17:58:54.305Z,26.46
2024-04-14T18:01:22.021Z,26.72
2024-04-14T18:03:48.794Z,27.07
2024-04-14T18:06:15.456Z,27.09
2024-04-14T18:08:42.098Z,26.71
2024-04-14T18:11:08.736Z,26.84
2024-04-14T18:13:35.398Z,26.89
2024-04-14T18:16:02.039Z,26.98
2024-04-14T18:18:28.732Z,26.99
2024-04-14T18:20:56.383Z,27.05
2024-04-14T18:23:23.012Z,27.10
2024-04-14T18:25:50.710Z,27.08
2024-04-14T18:28:17.378Z,27.04
2024-04-14T18:30:44.069Z,27.04
2024-04-14T18:33:10.779Z,26.87
2024-04-14T18:35:39.723Z,26.79
2024-04-14T18:38:10.881Z,26.59
2024-04-14T18:40:37.557Z,26.66
2024-04-14T18:43:04.252Z,26.65
2024-04-14T18:45:31.888Z,26.53
2024-04-14T18:47:58.659Z,26.26
2024-04-14T18:50:25.395Z,26.36
2024-04-14T18:52:52.639Z,26.42
2024-04-14T18:55:19.315Z,25.37
2024-04-14T18:57:48.432Z,25.90
2024-04-14T19:00:16.400Z,25.60
2024-04-14T19:02:42.992Z,25.44
2024-04-14T19:05:09.657Z,24.61
2024-04-14T19:07:36.335Z,25.19
2024-04-14T19:10:02.968Z,24.69
2024-04-14T19:12:29.649Z,24.72
2024-04-14T19:14:56.251Z,24.79
2024-04-14T19:17:22.906Z,24.88
2024-04-14T19:19:49.531Z,24.80
2024-04-14T19:22:16.339Z,24.71
2024-04-14T19:24:42.961Z,24.69
2024-04-14T19:27:09.596Z,24.64
2024-04-14T19:29:45.461Z,24.18
2024-04-14T19:32:12.238Z,24.38
2024-04-14T19:34:38.885Z,25.03
2024-04-14T19:37:05.490Z,24.68
2024-04-14T19:55:56.087Z,24.56
2024-04-14T19:58:22.782Z,24.33
2024-04-14T20:00:49.947Z,24.46
2024-04-14T20:03:17.049Z,24.39
2024-04-14T20:05:43.858Z,24.46
2024-04-14T20:08:11.105Z,24.46
2024-04-14T20:10:38.035Z,23.30
2024-04-14T20:13:07.051Z,23.55
2024-04-14T20:15:34.470Z,23.52
2024-04-14T20:18:01.351Z,23.61
2024-04-14T20:20:28.455Z,23.93
2024-04-14T20:23:02.808Z,24.23
2024-04-14T20:25:29.660Z,23.72
2024-04-14T20:27:56.348Z,23.64
2024-04-14T20:30:22.988Z,23.63
2024-04-14T20:32:49.773Z,23.01
2024-04-14T20:35:16.439Z,22.73
2024-04-14T20:37:43.235Z,23.00
2024-04-14T20:40:10.052Z,23.13
2024-04-14T20:42:36.817Z,23.32
2024-04-14T20:45:03.499Z,23.54
2024-04-14T20:47:30.287Z,23.51
2024-04-14T20:49:56.979Z,23.16
2024-04-14T20:52:25.160Z,23.11
2024-04-14T20:54:51.896Z,23.57
2024-04-14T20:57:18.904Z,23.22
2024-04-14T20:59:45.804Z,23.57
2024-04-14T21:02:24.854Z,23.51
2024-04-14T21:05:10.494Z,23.57
2024-04-14T21:07:38.083Z,23.23
2024-04-14T21:10:04.866Z,23.14
2024-04-14T21:12:31.963Z,23.51
2024-04-14T21:14:59.462Z,23.11
2024-04-14T21:17:28.603Z,22.82
2024-04-14T21:19:55.690Z,22.92
2024-04-14T21:22:22.707Z,23.48
2024-04-14T21:24:49.454Z,23.57
2024-04-14T21:27:16.107Z,23.34
2024-04-14T21:29:43.094Z,23.78
2024-04-14T21:32:09.731Z,23.83
2024-04-14T21:34:36.627Z,23.50
2024-04-14T21:37:03.405Z,23.21
2024-04-14T21:39:30.091Z,22.48
2024-04-14T21:41:59.215Z,22.40
2024-04-14T21:44:26.207Z,22.03
2024-04-14T21:46:53.145Z,22.21
2024-04-14T21:49:20.950Z,22.11
2024-04-14T21:51:47.837Z,21.47
2024-04-14T21:54:14.486Z,21.58
2024-04-14T21:56:41.154Z,21.60
2024-04-14T21:59:07.952Z,22.07
2024-04-14T22:01:43.956Z,22.14
2024-04-14T22:04:16.447Z,22.19
2024-04-14T22:06:48.448Z,22.61
2024-04-14T22:09:15.245Z,22.53
2024-04-14T22:11:42.046Z,22.30
2024-04-14T22:14:08.795Z,21.58
2024-04-14T22:16:35.548Z,21.25
2024-04-14T22:19:02.248Z,21.52
2024-04-14T22:21:32.198Z,21.24
2024-04-14T22:24:01.712Z,20.63
2024-04-14T22:26:28.414Z,20.94
2024-04-14T22:28:55.371Z,21.47
2024-04-14T22:31:22.048Z,21.23
2024-04-14T22:33:48.976Z,21.25
2024-04-14T22:36:17.931Z,21.18
2024-04-14T22:39:04.913Z,21.68
2024-04-14T22:41:31.512Z,21.85
2024-04-14T22:43:58.398Z,21.85
2024-04-14T22:46:25.062Z,21.52
2024-04-14T22:48:52.061Z,21.14
2024-04-14T22:51:18.691Z,20.95
2024-04-14T22:53:45.723Z,20.54
2024-04-14T22:56:12.345Z,20.94
2024-04-14T22:58:40.452Z,20.85
2024-04-14T23:01:07.283Z,21.27
2024-04-14T23:03:34.350Z,21.68
2024-04-14T23:06:01.640Z,21.83
2024-04-14T23:08:28.312Z,22.07
2024-04-14T23:10:56.030Z,21.37
2024-04-14T23:13:23.913Z,21.59
2024-04-14T23:15:50.752Z,22.33
2024-04-14T23:18:18.216Z,21.62
2024-04-14T23:20:44.908Z,20.82
2024-04-14T23:23:12.239Z,20.94
2024-04-14T23:25:46.126Z,21.21
2024-04-14T23:28:12.924Z,21.92
2024-04-14T23:30:39.800Z,21.90
2024-04-14T23:33:07.320Z,22.11
2024-04-14T23:35:34.455Z,21.64
2024-04-14T23:38:01.485Z,21.45
2024-04-14T23:40:28.205Z,21.20
2024-04-14T23:42:54.898Z,21.75
2024-04-14T23:45:21.590Z,21.29
2024-04-14T23:47:48.640Z,20.56
2024-04-14T23:50:15.574Z,20.45
2024-04-14T23:52:42.265Z,20.52
2024-04-14T23:55:09.441Z,21.04
2024-04-14T23:57:36.235Z,20.69
